createdAt,value
2023-04-15T00:01:01.422Z,1.27
2023-04-15T00:03:28.876Z,1.50
2023-04-15T00:05:56.392Z,1.10
2023-04-15T00:08:23.846Z,1.08
2023-04-15T00:10:51.034Z,1.13
2023-04-15T00:13:18.057Z,1.33
2023-04-15T00:15:45.041Z,1.05
2023-04-15T00:18:12.048Z,1.10
2023-04-15T00:20:39.038Z,1.50
2023-04-15T00:23:06.132Z,1.17
2023-04-15T00:25:33.220Z,0.88
2023-04-15T00:28:00.411Z,1.30
2023-04-15T00:30:27.477Z,1.00
2023-04-15T00:32:54.513Z,1.30
2023-04-15T00:35:24.122Z,1.25
2023-04-15T00:37:51.600Z,1.15
2023-04-15T00:40:21.114Z,1.40
2023-04-15T00:42:48.378Z,1.55
2023-04-15T00:45:15.960Z,1.50
2023-04-15T00:47:44.490Z,1.20
2023-04-15T00:50:12.872Z,1.20
2023-04-15T00:52:41.012Z,1.10
2023-04-15T00:55:08.879Z,1.20
2023-04-15T00:57:36.796Z,1.30
2023-04-15T01:00:11.681Z,1.42
2023-04-15T01:02:39.587Z,1.48
2023-04-15T01:05:07.884Z,1.10
2023-04-15T01:07:35.225Z,1.30
2023-04-15T01:10:04.302Z,0.85
2023-04-15T01:12:33.379Z,1.10
2023-04-15T01:15:01.313Z,1.10
2023-04-15T01:17:28.453Z,1.20
2023-04-15T01:19:58.138Z,1.20
2023-04-15T01:25:09.927Z,1.42
2023-04-15T01:27:42.523Z,1.25
2023-04-15T01:30:10.735Z,1.10
2023-04-15T01:32:38.422Z,1.40
2023-04-15T01:35:24.481Z,1.50
2023-04-15T01:37:52.687Z,1.45
2023-04-15T01:40:19.589Z,1.15
2023-04-15T01:42:47.805Z,1.20
2023-04-15T01:45:17.638Z,1.42
2023-04-15T01:47:45.921Z,1.30
2023-04-15T01:50:14.111Z,1.25
2023-04-15T01:52:42.523Z,1.30
2023-04-15T01:55:11.583Z,1.20
2023-04-15T01:57:41.239Z,1.40
2023-04-15T02:00:09.917Z,1.65
2023-04-15T02:02:44.930Z,1.40
2023-04-15T02:05:13.321Z,1.63
2023-04-15T02:07:42.637Z,1.13
2023-04-15T02:10:13.208Z,1.80
2023-04-15T02:12:41.699Z,1.30
2023-04-15T02:15:10.477Z,1.40
2023-04-15T02:17:38.842Z,1.58
2023-04-15T02:20:08.767Z,1.33
2023-04-15T02:22:37.069Z,1.00
2023-04-15T02:25:05.819Z,1.30
2023-04-15T02:27:34.087Z,1.00
2023-04-15T02:30:02.667Z,1.08
2023-04-15T02:32:30.962Z,1.20
2023-04-15T02:35:06.911Z,1.20
2023-04-15T02:37:40.838Z,1.20
2023-04-15T02:40:14.025Z,1.20
2023-04-15T02:42:44.387Z,1.33
2023-04-15T02:45:15.335Z,1.20
2023-04-15T02:47:46.117Z,1.10
2023-04-15T02:50:15.276Z,1.38
2023-04-15T02:52:44.890Z,1.60
2023-04-15T02:55:13.445Z,1.15
2023-04-15T02:57:41.811Z,1.10
2023-04-15T03:00:12.449Z,1.10
2023-04-15T03:02:44.734Z,1.45
2023-04-15T03:05:14.780Z,1.40
2023-04-15T03:07:50.430Z,1.48
2023-04-15T03:10:19.609Z,1.27
2023-04-15T03:12:49.128Z,0.95
2023-04-15T03:15:20.189Z,1.30
2023-04-15T03:17:52.067Z,1.48
2023-04-15T03:20:20.612Z,1.23
2023-04-15T03:25:18.116Z,1.40
2023-04-15T03:27:46.482Z,1.20
2023-04-15T03:30:15.196Z,1.02
2023-04-15T03:32:43.441Z,1.23
2023-04-15T03:35:12.024Z,1.48
2023-04-15T03:37:40.274Z,1.50
2023-04-15T03:40:09.883Z,1.90
2023-04-15T03:45:07.736Z,1.40
2023-04-15T03:47:36.057Z,1.52
2023-04-15T03:50:04.520Z,1.35
2023-04-15T03:52:32.687Z,1.42
2023-04-15T03:55:00.912Z,1.00
2023-04-15T03:57:29.093Z,1.23
2023-04-15T03:59:57.357Z,1.30
2023-04-15T04:02:26.134Z,1.42
2023-04-15T04:04:54.681Z,1.50
2023-04-15T04:07:24.601Z,2.00
2023-04-15T04:09:52.945Z,1.83
2023-04-15T04:12:21.309Z,1.10
2023-04-15T04:14:49.608Z,1.52
2023-04-15T04:17:18.134Z,1.20
2023-04-15T04:19:46.624Z,1.70
2023-04-15T04:22:14.885Z,1.50
2023-04-15T04:24:43.226Z,1.10
2023-04-15T04:27:11.481Z,1.17
2023-04-15T04:29:39.695Z,1.65
2023-04-15T04:32:08.062Z,1.40
2023-04-15T04:34:36.797Z,1.50
2023-04-15T04:37:05.034Z,1.42
2023-04-15T04:39:33.242Z,1.23
2023-04-15T04:42:01.533Z,1.33
2023-04-15T04:44:29.854Z,1.75
2023-04-15T04:46:58.133Z,2.35
2023-04-15T04:49:26.526Z,2.10
2023-04-15T04:51:54.931Z,1.70
2023-04-15T04:54:23.872Z,1.65
2023-04-15T04:56:52.068Z,1.85
2023-04-15T04:59:20.486Z,1.50
2023-04-15T05:01:48.815Z,1.42
2023-04-15T05:04:17.192Z,1.48
2023-04-15T05:06:45.489Z,1.58
2023-04-15T05:09:13.683Z,1.67
2023-04-15T05:11:41.945Z,1.38
2023-04-15T05:14:10.207Z,1.50
2023-04-15T05:16:38.437Z,2.40
2023-04-15T05:19:06.654Z,1.38
2023-04-15T05:21:34.912Z,1.80
2023-04-15T05:24:03.171Z,1.42
2023-04-15T05:26:31.644Z,1.50
2023-04-15T05:29:00.290Z,1.50
2023-04-15T05:31:28.785Z,1.60
2023-04-15T05:33:57.046Z,2.08
2023-04-15T05:36:26.132Z,1.35
2023-04-15T05:38:54.342Z,2.22
2023-04-15T05:41:40.692Z,1.83
2023-04-15T05:44:14.055Z,1.40
2023-04-15T05:46:42.553Z,1.70
2023-04-15T05:49:10.879Z,1.30
2023-04-15T05:51:39.145Z,1.65
2023-04-15T05:54:07.442Z,1.35
2023-04-15T05:56:35.641Z,1.90
2023-04-15T05:59:04.049Z,1.60
2023-04-15T06:01:33.772Z,1.67
2023-04-15T06:04:02.117Z,1.70
2023-04-15T06:06:30.353Z,1.30
2023-04-15T06:08:58.779Z,1.55
2023-04-15T06:11:27.534Z,1.73
2023-04-15T06:13:55.789Z,1.50
2023-04-15T06:16:24.076Z,1.60
2023-04-15T06:18:52.324Z,1.60
2023-04-15T06:21:20.691Z,1.58
2023-04-15T06:23:48.956Z,1.65
2023-04-15T06:26:17.195Z,1.80
2023-04-15T06:28:45.495Z,1.70
2023-04-15T06:31:13.775Z,2.22
2023-04-15T06:33:42.055Z,1.38
2023-04-15T06:36:10.375Z,1.58
2023-04-15T06:38:38.598Z,1.60
2023-04-15T06:41:06.870Z,1.73
2023-04-15T06:43:35.566Z,1.83
2023-04-15T06:46:03.907Z,1.63
2023-04-15T06:48:32.334Z,1.50
2023-04-15T06:51:00.643Z,2.58
2023-04-15T06:53:28.832Z,1.83
2023-04-15T06:55:57.048Z,1.45
2023-04-15T06:58:25.516Z,1.75
2023-04-15T07:00:53.910Z,1.60
2023-04-15T07:03:22.598Z,1.67
2023-04-15T07:05:51.095Z,2.60
2023-04-15T07:08:22.840Z,3.00
2023-04-15T07:10:51.834Z,2.10
2023-04-15T07:13:20.092Z,1.77
2023-04-15T07:15:48.292Z,2.22
2023-04-15T07:18:18.901Z,1.75
2023-04-15T07:20:47.196Z,1.60
2023-04-15T07:23:15.409Z,1.67
2023-04-15T07:25:43.728Z,1.35
2023-04-15T07:28:12.113Z,1.20
2023-04-15T07:30:40.478Z,2.28
2023-04-15T07:33:08.805Z,1.67
2023-04-15T07:35:37.051Z,1.60
2023-04-15T07:38:05.284Z,2.40
2023-04-15T07:40:33.636Z,1.70
2023-04-15T07:43:01.972Z,1.73
2023-04-15T07:45:30.208Z,2.00
2023-04-15T07:47:58.632Z,2.00
2023-04-15T07:50:27.242Z,2.00
2023-04-15T07:52:56.108Z,1.65
2023-04-15T07:55:25.723Z,1.60
2023-04-15T07:57:54.395Z,1.77
2023-04-15T08:00:22.940Z,1.77
2023-04-15T08:02:53.374Z,1.80
2023-04-15T08:05:22.012Z,1.80
2023-04-15T08:07:50.714Z,1.40
2023-04-15T08:10:19.027Z,1.40
2023-04-15T08:12:49.649Z,1.80
2023-04-15T08:15:18.258Z,1.77
2023-04-15T08:17:48.846Z,1.77
2023-04-15T08:20:17.155Z,1.60
2023-04-15T08:22:46.574Z,1.58
2023-04-15T08:27:42.986Z,1.85
2023-04-15T08:30:11.954Z,2.83
2023-04-15T08:32:40.456Z,5.10
2023-04-15T08:35:09.294Z,3.22
2023-04-15T08:37:37.554Z,2.67
2023-04-15T08:40:06.506Z,1.80
2023-04-15T08:42:44.949Z,2.05
2023-04-15T08:45:13.675Z,1.40
2023-04-15T08:47:44.802Z,1.77
2023-04-15T08:50:14.800Z,2.30
2023-04-15T08:52:43.343Z,1.52
2023-04-15T08:55:13.816Z,5.32
2023-04-15T08:57:42.097Z,1.90
2023-04-15T09:00:10.929Z,1.95
2023-04-15T09:02:39.726Z,1.92
2023-04-15T09:05:08.838Z,1.80
2023-04-15T09:07:37.136Z,3.38
2023-04-15T09:10:06.683Z,1.27
2023-04-15T09:12:36.346Z,2.20
2023-04-15T09:15:05.046Z,1.80
2023-04-15T09:17:34.674Z,2.00
2023-04-15T09:20:11.385Z,1.98
2023-04-15T09:22:40.890Z,1.55
2023-04-15T09:25:24.946Z,2.03
2023-04-15T09:27:56.006Z,1.83
2023-04-15T09:30:24.708Z,2.10
2023-04-15T09:32:54.641Z,11.20
2023-04-15T09:35:26.378Z,2.22
2023-04-15T09:38:09.959Z,2.03
2023-04-15T09:40:42.181Z,2.08
2023-04-15T09:43:13.135Z,2.58
2023-04-15T09:45:49.283Z,1.85
2023-04-15T09:48:19.251Z,2.13
2023-04-15T09:50:50.702Z,2.10
2023-04-15T09:53:21.164Z,1.80
2023-04-15T09:55:57.010Z,2.47
2023-04-15T09:58:27.647Z,1.98
2023-04-15T10:00:57.887Z,2.50
2023-04-15T10:03:36.968Z,2.35
2023-04-15T10:06:05.870Z,2.20
2023-04-15T10:08:35.091Z,2.65
2023-04-15T10:11:04.924Z,2.10
2023-04-15T10:13:35.157Z,2.22
2023-04-15T10:16:11.002Z,2.35
2023-04-15T10:18:44.597Z,2.67
2023-04-15T10:21:18.838Z,2.00
2023-04-15T10:23:47.491Z,1.90
2023-04-15T10:26:17.692Z,2.05
2023-04-15T10:28:49.529Z,2.13
2023-04-15T10:31:18.675Z,2.67
2023-04-15T10:36:18.037Z,2.30
2023-04-15T10:38:46.912Z,2.10
2023-04-15T10:41:23.792Z,2.00
2023-04-15T10:44:01.227Z,2.20
2023-04-15T10:46:43.074Z,2.35
2023-04-15T10:49:14.429Z,2.08
2023-04-15T10:51:44.902Z,3.90
2023-04-15T10:54:39.562Z,2.10
2023-04-15T10:57:14.005Z,2.60
2023-04-15T11:00:06.874Z,2.45
2023-04-15T11:03:20.223Z,2.33
2023-04-15T11:05:49.985Z,2.30
2023-04-15T11:08:18.261Z,2.67
2023-04-15T11:10:46.421Z,2.53
2023-04-15T11:13:21.982Z,2.25
2023-04-15T11:15:50.493Z,3.70
2023-04-15T11:18:30.710Z,2.55
2023-04-15T11:21:03.713Z,2.65
2023-04-15T11:23:44.392Z,2.10
2023-04-15T11:28:44.975Z,2.90
2023-04-15T11:31:15.739Z,2.30
2023-04-15T11:33:47.134Z,2.40
2023-04-15T11:36:15.484Z,2.22
2023-04-15T11:38:45.024Z,2.20
2023-04-15T11:41:13.388Z,2.65
2023-04-15T11:43:41.703Z,2.40
2023-04-15T11:46:10.189Z,2.33
2023-04-15T11:48:45.847Z,2.80
2023-04-15T11:51:15.092Z,2.40
2023-04-15T11:53:47.377Z,2.55
2023-04-15T11:56:23.173Z,2.72
2023-04-15T11:59:08.193Z,3.13
2023-04-15T12:01:39.429Z,2.80
2023-04-15T12:04:22.575Z,2.67
2023-04-15T12:06:52.132Z,2.67
2023-04-15T12:09:20.513Z,2.92
2023-04-15T12:11:58.324Z,2.88
2023-04-15T12:14:33.005Z,2.60
2023-04-15T12:17:05.638Z,2.63
2023-04-15T12:19:37.963Z,2.40
2023-04-15T12:22:15.786Z,2.70
2023-04-15T12:24:46.938Z,2.50
2023-04-15T12:27:16.386Z,2.58
2023-04-15T12:29:44.068Z,2.63
2023-04-15T12:32:16.026Z,4.93
2023-04-15T12:34:51.461Z,3.17
2023-04-15T12:37:19.661Z,5.00
2023-04-15T12:39:49.803Z,2.80
2023-04-15T12:42:18.138Z,2.90
2023-04-15T12:44:45.384Z,2.60
2023-04-15T12:47:12.986Z,2.72
2023-04-15T12:49:41.145Z,3.00
2023-04-15T12:52:08.568Z,2.83
2023-04-15T12:54:36.585Z,2.65
2023-04-15T12:57:06.748Z,2.85
2023-04-15T12:59:35.568Z,2.47
2023-04-15T13:02:03.393Z,2.20
2023-04-15T13:04:31.497Z,3.38
2023-04-15T13:06:59.079Z,2.75
2023-04-15T13:09:26.528Z,3.17
2023-04-15T13:11:54.597Z,2.58
2023-04-15T13:14:22.203Z,2.80
2023-04-15T13:16:49.405Z,2.88
2023-04-15T13:19:16.502Z,2.70
2023-04-15T13:21:43.592Z,2.90
2023-04-15T13:24:10.740Z,3.35
2023-04-15T13:26:38.112Z,2.90
2023-04-15T13:29:05.540Z,2.65
2023-04-15T13:31:32.756Z,3.58
2023-04-15T13:33:59.933Z,2.80
2023-04-15T13:36:27.521Z,2.92
2023-04-15T13:38:54.837Z,4.03
2023-04-15T13:41:22.065Z,4.25
2023-04-15T13:43:49.216Z,2.90
2023-04-15T13:46:16.816Z,3.20
2023-04-15T13:48:43.973Z,4.65
2023-04-15T13:51:11.179Z,3.67
2023-04-15T13:53:39.728Z,2.80
2023-04-15T13:56:10.926Z,4.55
2023-04-15T13:58:38.694Z,3.17
2023-04-15T14:01:07.309Z,3.60
2023-04-15T14:06:02.532Z,3.10
2023-04-15T14:08:30.322Z,3.13
2023-04-15T14:10:57.921Z,2.83
2023-04-15T14:13:25.411Z,3.30
2023-04-15T14:15:52.761Z,2.72
2023-04-15T14:18:19.961Z,3.00
2023-04-15T14:20:47.083Z,3.08
2023-04-15T14:23:14.152Z,2.83
2023-04-15T14:25:41.424Z,2.85
2023-04-15T14:28:08.617Z,2.65
2023-04-15T14:30:35.857Z,2.95
2023-04-15T14:33:03.662Z,3.78
2023-04-15T14:35:31.162Z,2.80
2023-04-15T14:37:58.356Z,2.67
2023-04-15T14:40:25.439Z,3.47
2023-04-15T14:42:52.637Z,3.00
2023-04-15T14:45:19.794Z,4.13
2023-04-15T14:47:47.669Z,4.45
2023-04-15T14:50:14.878Z,3.55
2023-04-15T14:52:42.191Z,3.15
2023-04-15T14:55:11.047Z,3.15
2023-04-15T14:57:39.092Z,4.10
2023-04-15T15:00:07.633Z,4.00
2023-04-15T15:02:39.935Z,2.80
2023-04-15T15:05:10.110Z,2.38
2023-04-15T15:07:39.500Z,2.40
2023-04-15T15:10:07.704Z,2.45
2023-04-15T15:12:35.146Z,2.30
2023-04-15T15:15:12.297Z,2.13
2023-04-15T15:17:43.588Z,1.90
2023-04-15T15:20:11.043Z,2.20
2023-04-15T15:22:38.256Z,2.10
2023-04-15T15:25:05.840Z,1.88
2023-04-15T15:27:33.197Z,2.10
2023-04-15T15:30:00.489Z,1.85
2023-04-15T15:32:27.710Z,1.85
2023-04-15T15:34:54.871Z,1.90
2023-04-15T15:37:21.910Z,2.10
2023-04-15T15:39:50.806Z,2.35
2023-04-15T15:42:19.596Z,2.40
2023-04-15T15:44:46.731Z,2.70
2023-04-15T15:47:13.887Z,1.83
2023-04-15T15:49:41.122Z,1.52
2023-04-15T15:52:08.886Z,1.83
2023-04-15T15:54:37.754Z,1.63
2023-04-15T15:57:04.871Z,2.25
2023-04-15T15:59:33.277Z,1.60
2023-04-15T16:02:02.634Z,2.00
2023-04-15T16:04:30.352Z,2.90
2023-04-15T16:06:57.657Z,1.75
2023-04-15T16:09:24.716Z,2.10
2023-04-15T16:11:52.289Z,2.08
2023-04-15T16:14:19.695Z,2.45
2023-04-15T16:16:46.838Z,2.08
2023-04-15T16:19:13.926Z,2.95
2023-04-15T16:21:41.086Z,2.30
2023-04-15T16:24:08.129Z,3.03
2023-04-15T16:26:35.168Z,2.05
2023-04-15T16:29:02.390Z,2.55
2023-04-15T16:31:29.631Z,2.90
2023-04-15T16:33:57.547Z,2.75
2023-04-15T16:36:24.701Z,1.92
2023-04-15T16:38:51.814Z,2.08
2023-04-15T16:41:19.215Z,2.10
2023-04-15T16:43:46.591Z,2.83
2023-04-15T16:46:13.692Z,2.55
2023-04-15T16:48:40.859Z,3.50
2023-04-15T16:51:07.975Z,3.13
2023-04-15T16:53:35.067Z,3.08
2023-04-15T16:56:02.169Z,2.92
2023-04-15T16:58:29.251Z,3.55
2023-04-15T17:00:56.573Z,3.67
2023-04-15T17:03:23.856Z,4.00
2023-04-15T17:05:51.184Z,4.10
2023-04-15T17:08:18.266Z,5.00
2023-04-15T17:10:45.570Z,4.35
2023-04-15T17:13:12.798Z,3.90
2023-04-15T17:15:41.089Z,3.90
2023-04-15T17:18:25.674Z,4.80
2023-04-15T17:21:06.667Z,4.13
2023-04-15T17:23:40.760Z,4.90
2023-04-15T17:26:10.899Z,5.10
2023-04-15T17:28:39.166Z,6.47
2023-04-15T17:31:14.067Z,5.05
2023-04-15T17:36:37.335Z,6.93
2023-04-15T17:39:04.728Z,7.13
2023-04-15T17:41:51.877Z,6.35
2023-04-15T17:44:38.850Z,5.88
2023-04-15T17:47:25.942Z,4.72
2023-04-15T17:50:12.982Z,4.82
2023-04-15T17:53:00.001Z,4.95
2023-04-15T17:55:47.038Z,4.43
2023-04-15T18:01:22.447Z,4.50
2023-04-15T18:04:09.788Z,4.38
2023-04-15T18:06:56.909Z,3.92
2023-04-15T18:09:44.487Z,4.07
2023-04-15T18:12:31.428Z,5.50
2023-04-15T18:15:18.828Z,4.80
2023-04-15T18:18:06.030Z,4.05
2023-04-15T18:20:33.654Z,3.58
2023-04-15T18:23:01.653Z,4.03
2023-04-15T18:25:30.125Z,5.10
2023-04-15T18:27:57.373Z,3.63
2023-04-15T18:30:24.557Z,3.95
2023-04-15T18:32:51.769Z,4.03
2023-04-15T18:35:19.261Z,4.22
2023-04-15T18:37:46.708Z,5.32
2023-04-15T18:40:16.284Z,4.60
2023-04-15T18:42:43.411Z,4.40
2023-04-15T18:45:11.038Z,4.07
2023-04-15T18:47:38.450Z,4.47
2023-04-15T18:50:06.063Z,4.07
2023-04-15T18:52:33.920Z,4.43
2023-04-15T18:55:03.369Z,4.18
2023-04-15T18:57:34.982Z,3.90
2023-04-15T19:00:03.737Z,4.60
2023-04-15T19:02:33.651Z,4.38
2023-04-15T19:05:04.246Z,4.70
2023-04-15T19:07:32.942Z,4.10
2023-04-15T19:10:00.343Z,4.25
2023-04-15T19:12:27.501Z,4.45
2023-04-15T19:14:54.674Z,3.70
2023-04-15T19:17:21.797Z,3.80
2023-04-15T19:19:48.946Z,4.32
2023-04-15T19:22:16.716Z,4.50
2023-04-15T19:24:43.818Z,5.25
2023-04-15T19:27:11.263Z,4.05
2023-04-15T19:29:38.327Z,4.22
2023-04-15T19:32:05.904Z,3.90
2023-04-15T19:34:33.078Z,4.00
2023-04-15T19:37:00.166Z,4.25
2023-04-15T19:39:27.230Z,3.50
2023-04-15T19:41:55.489Z,3.88
2023-04-15T19:44:22.574Z,3.40
2023-04-15T19:46:51.550Z,3.38
2023-04-15T19:49:19.286Z,2.97
2023-04-15T19:51:49.209Z,3.10
2023-04-15T19:54:16.405Z,3.58
2023-04-15T19:56:43.500Z,3.00
2023-04-15T19:59:12.811Z,3.60
2023-04-15T20:01:40.105Z,3.88
2023-04-15T20:04:07.349Z,3.60
2023-04-15T20:06:34.588Z,3.78
2023-04-15T20:09:02.228Z,4.10
2023-04-15T20:12:45.886Z,3.88
2023-04-15T20:14:17.851Z,3.45
2023-04-15T20:16:45.115Z,3.72
2023-04-15T20:19:13.379Z,3.40
2023-04-15T20:21:40.923Z,3.92
2023-04-15T20:24:08.115Z,3.70
2023-04-15T20:26:35.367Z,3.22
2023-04-15T20:29:02.628Z,4.03
2023-04-15T20:31:29.775Z,3.40
2023-04-15T20:33:57.437Z,3.67
2023-04-15T20:36:24.818Z,3.22
2023-04-15T20:38:52.134Z,3.42
2023-04-15T20:41:19.326Z,4.30
2023-04-15T20:43:46.343Z,3.83
2023-04-15T20:46:20.147Z,3.13
2023-04-15T20:48:48.737Z,3.25
2023-04-15T20:51:16.148Z,3.13
2023-04-15T20:53:43.385Z,3.72
2023-04-15T20:56:11.711Z,3.65
2023-04-15T20:58:39.439Z,3.80
2023-04-15T21:01:06.908Z,3.85
2023-04-15T21:03:34.157Z,9.52
2023-04-15T21:06:01.408Z,3.80
2023-04-15T21:08:31.696Z,3.45
2023-04-15T21:10:58.908Z,4.28
2023-04-15T21:13:26.234Z,3.67
2023-04-15T21:15:56.762Z,3.30
2023-04-15T21:18:24.291Z,3.63
2023-04-15T21:21:09.617Z,3.45
2023-04-15T21:23:36.776Z,3.88
2023-04-15T21:26:04.079Z,3.42
2023-04-15T21:28:31.846Z,3.38
2023-04-15T21:30:59.524Z,4.00
2023-04-15T21:33:27.283Z,3.85
2023-04-15T21:35:54.616Z,3.42
2023-04-15T21:38:23.345Z,3.13
2023-04-15T21:40:51.314Z,3.85
2023-04-15T21:43:18.633Z,3.42
2023-04-15T21:46:21.125Z,4.47
2023-04-15T21:51:00.944Z,3.90
2023-04-15T21:53:28.219Z,4.10
2023-04-15T21:55:55.302Z,3.70
2023-04-15T21:58:22.596Z,3.55
2023-04-15T22:00:49.761Z,4.15
2023-04-15T22:03:17.234Z,3.88
2023-04-15T22:05:47.339Z,4.72
2023-04-15T22:08:14.453Z,3.95
2023-04-15T22:10:41.477Z,4.50
2023-04-15T22:13:11.503Z,3.80
2023-04-15T22:15:39.116Z,4.22
2023-04-15T22:18:06.652Z,3.85
2023-04-15T22:20:34.012Z,3.60
2023-04-15T22:23:03.929Z,3.80
2023-04-15T22:25:31.734Z,3.83
2023-04-15T22:27:58.755Z,5.25
2023-04-15T22:30:26.105Z,4.45
2023-04-15T22:32:53.204Z,3.92
2023-04-15T22:35:20.286Z,3.83
2023-04-15T22:37:48.351Z,4.40
2023-04-15T22:40:16.063Z,4.63
2023-04-15T22:42:43.190Z,4.75
2023-04-15T22:45:10.721Z,5.05
2023-04-15T22:47:38.295Z,3.80
2023-04-15T22:50:06.393Z,4.82
2023-04-15T22:52:33.564Z,4.10
2023-04-15T22:55:00.799Z,4.43
2023-04-15T22:57:28.783Z,4.00
2023-04-15T22:59:56.152Z,4.15
2023-04-15T23:02:23.359Z,4.40
2023-04-15T23:04:50.644Z,4.25
2023-04-15T23:07:17.791Z,4.22
2023-04-15T23:09:44.857Z,4.45
2023-04-15T23:12:12.049Z,4.68
2023-04-15T23:14:39.051Z,4.70
2023-04-15T23:17:06.307Z,5.25
2023-04-15T23:19:33.410Z,5.05
2023-04-15T23:22:01.021Z,5.28
2023-04-15T23:24:28.043Z,4.78
2023-04-15T23:26:55.447Z,4.93
2023-04-15T23:29:22.470Z,5.15
2023-04-15T23:31:49.500Z,4.57
2023-04-15T23:34:16.609Z,4.50
2023-04-15T23:36:43.823Z,4.78
2023-04-15T23:39:11.256Z,5.13
2023-04-15T23:41:38.432Z,4.88
2023-04-15T23:44:05.774Z,4.45
2023-04-15T23:46:32.835Z,5.32
2023-04-15T23:49:00.021Z,5.40
2023-04-15T23:51:27.120Z,4.55
2023-04-15T23:53:54.242Z,5.28
2023-04-15T23:56:21.479Z,4.72
2023-04-15T23:58:48.680Z,5.45
